Time;durP1;ratioP1;P1;durP2;ratioP2;P2;SDS_P1;SDS_P2;PMS_P1;PMS_P2;Temp;Humidity;BMP_temperature;BMP_pressure;BME280_temperature;BME280_humidity;BME280_pressure;Samples;Min_cycle;Max_cycle;Signal;HPM_P1;HPM_P2
2021/05/01 00:02:52;;;;;;;24.07;15.03;;;;;;;9.48;58.66;100084.53;2169162;81;28778;-61
2021/05/01 00:05:54;;;;;;;20.27;14.30;;;;;;;9.47;58.77;100078.80;2173362;81;31334;-61
2021/05/01 00:08:57;;;;;;;19.35;13.22;;;;;;;9.49;58.84;100087.61;2171774;81;33115;-61
2021/05/01 00:11:59;;;;;;;23.42;14.03;;;;;;;9.48;58.76;100093.89;2173439;81;29165;-61
2021/05/01 00:15:01;;;;;;;19.65;13.13;;;;;;;9.49;58.73;100090.77;2170301;81;27635;-61
2021/05/01 00:18:06;;;;;;;22.00;13.15;;;;;;;9.51;58.89;100095.58;2171805;81;29728;-61
2021/05/01 00:21:08;;;;;;;20.92;14.13;;;;;;;9.51;58.84;100103.11;2171412;81;31616;-62
2021/05/01 00:24:11;;;;;;;21.52;14.05;;;;;;;9.51;58.90;100095.09;2167524;81;33091;-61
2021/05/01 00:27:17;;;;;;;20.15;13.28;;;;;;;9.51;58.92;100101.78;2169892;81;30029;-61
2021/05/01 00:30:21;;;;;;;23.73;13.72;;;;;;;9.49;58.89;100086.27;2144440;81;27714;-61
2021/05/01 00:33:24;;;;;;;20.07;14.60;;;;;;;9.47;58.99;100085.48;2130051;81;29547;-61
2021/05/01 00:36:26;;;;;;;25.02;16.05;;;;;;;9.43;58.94;100076.75;2146892;81;31133;-61
2021/05/01 00:39:29;;;;;;;20.52;13.90;;;;;;;9.40;58.98;100074.70;2174185;81;32927;-63
2021/05/01 00:42:31;;;;;;;24.77;15.53;;;;;;;9.38;59.04;100073.91;2174094;81;29176;-61
2021/05/01 00:45:34;;;;;;;18.90;13.50;;;;;;;9.38;59.20;100084.59;2174308;81;27591;-61
2021/05/01 00:48:37;;;;;;;23.27;15.43;;;;;;;9.33;59.16;100087.50;2174068;81;28826;-61
2021/05/01 00:51:40;;;;;;;22.55;14.58;;;;;;;9.30;59.11;100093.44;2174096;81;32028;-61
2021/05/01 00:54:43;;;;;;;26.87;15.03;;;;;;;9.30;59.25;100086.30;2174165;81;34037;-61
2021/05/01 00:57:45;;;;;;;27.90;15.15;;;;;;;9.31;59.28;100089.38;2172688;81;29163;-62
2021/05/01 01:01:05;;;;;;;22.13;15.25;;;;;;;9.33;59.41;100095.52;2172245;81;27776;-61
2021/05/01 01:03:55;;;;;;;21.65;13.70;;;;;;;9.31;59.29;100088.49;2173887;81;28828;-61
2021/05/01 01:06:58;;;;;;;23.83;13.70;;;;;;;9.30;59.37;100080.95;2176544;81;31153;-62
2021/05/01 01:10:00;;;;;;;24.05;15.95;;;;;;;9.28;59.60;100074.81;2177265;81;33170;-61
2021/05/01 01:13:03;;;;;;;20.40;13.55;;;;;;;9.25;59.55;100072.28;2207664;80;30029;-62
2021/05/01 01:16:06;;;;;;;21.50;15.08;;;;;;;9.28;59.74;100083.69;2207109;79;27663;-61
2021/05/01 01:19:09;;;;;;;22.50;15.23;;;;;;;9.28;59.81;100078.34;2205003;80;28826;-62
2021/05/01 01:22:15;;;;;;;24.20;16.48;;;;;;;9.27;59.72;100079.28;2199064;80;31217;-62
2021/05/01 01:25:18;;;;;;;24.85;16.35;;;;;;;9.28;59.61;100064.13;2158089;82;33097;-63
2021/05/01 01:28:20;;;;;;;23.00;15.78;;;;;;;9.31;59.76;100057.30;2203371;80;29148;-62
2021/05/01 01:31:23;;;;;;;27.25;17.32;;;;;;;9.30;59.63;100066.25;2206827;80;27758;-61
2021/05/01 01:34:26;;;;;;;26.73;18.00;;;;;;;9.35;59.85;100078.91;2205967;80;29709;-62
2021/05/01 01:37:28;;;;;;;23.83;16.42;;;;;;;9.40;59.78;100082.72;2211055;80;31117;-62
2021/05/01 01:40:31;;;;;;;25.85;16.52;;;;;;;9.46;59.97;100089.09;2137124;81;33208;-61
2021/05/01 01:43:34;;;;;;;26.35;16.05;;;;;;;9.50;59.82;100082.66;2116854;84;29185;-62
2021/05/01 01:46:37;;;;;;;27.48;17.75;;;;;;;9.53;60.12;100084.30;2126445;82;27616;-61
2021/05/01 01:49:41;;;;;;;29.90;18.05;;;;;;;9.51;59.76;100080.87;2209230;80;28824;-62
2021/05/01 01:52:44;;;;;;;26.57;17.95;;;;;;;9.47;59.82;100080.13;2146543;82;31077;-62
2021/05/01 01:55:46;;;;;;;26.17;17.65;;;;;;;9.49;60.00;100082.75;2179086;81;33173;-61
2021/05/01 01:58:49;;;;;;;25.35;16.82;;;;;;;9.51;60.31;100071.51;2211001;80;30602;-61
2021/05/01 02:01:52;;;;;;;24.77;17.02;;;;;;;9.49;60.58;100080.08;2177074;81;27659;-61
2021/05/01 02:04:54;;;;;;;27.87;17.85;;;;;;;9.47;60.61;100076.12;2172388;80;29022;-61
2021/05/01 02:07:57;;;;;;;44.10;24.52;;;;;;;9.42;60.75;100058.12;2200170;80;31152;-61
2021/05/01 02:11:00;;;;;;;39.20;21.80;;;;;;;9.37;60.84;100050.78;2142088;82;33623;-62
2021/05/01 02:14:04;;;;;;;36.50;21.75;;;;;;;9.30;60.83;100058.23;2180456;81;29173;-62
2021/05/01 02:17:07;;;;;;;26.15;14.85;;;;;;;9.28;61.04;100045.41;2176457;81;27618;-62
2021/05/01 02:20:11;;;;;;;30.35;18.35;;;;;;;9.27;61.41;100051.70;2181030;81;28676;-62
2021/05/01 02:23:14;;;;;;;29.82;19.05;;;;;;;9.22;61.57;100048.37;2181113;81;32119;-61
2021/05/01 02:26:17;;;;;;;27.35;17.15;;;;;;;9.21;61.69;100046.63;2180734;81;33656;-63
2021/05/01 02:29:20;;;;;;;30.97;19.55;;;;;;;9.22;61.87;100046.58;2179052;81;30040;-61
2021/05/01 02:32:23;;;;;;;29.98;18.98;;;;;;;9.27;62.02;100047.69;2179107;81;27759;-61
2021/05/01 02:35:30;;;;;;;28.47;19.07;;;;;;;9.27;62.04;100041.86;2140126;81;31089;-61
2021/05/01 02:38:33;;;;;;;29.57;19.82;;;;;;;9.28;62.16;100036.91;2171391;81;31141;-61
2021/05/01 02:41:36;;;;;;;32.93;19.80;;;;;;;9.29;62.44;100020.41;2180951;81;34167;-61
2021/05/01 02:44:38;;;;;;;31.02;19.80;;;;;;;9.23;62.31;100021.59;2180987;81;30520;-62
2021/05/01 02:47:42;;;;;;;31.27;19.67;;;;;;;9.20;62.50;100015.50;2181043;81;27677;-61
2021/05/01 02:50:44;;;;;;;34.27;22.32;;;;;;;9.16;62.65;100022.81;2180873;81;28826;-61
2021/05/01 02:53:47;;;;;;;38.70;23.52;;;;;;;9.11;62.62;100019.03;2179589;81;31151;-61
2021/05/01 02:56:50;;;;;;;34.92;21.65;;;;;;;9.15;62.83;100012.20;2174746;81;33120;-61
2021/05/01 02:59:52;;;;;;;35.28;23.62;;;;;;;9.17;63.13;100011.66;2180064;81;30116;-62
2021/05/01 03:02:56;;;;;;;35.15;23.27;;;;;;;9.16;63.08;100018.80;2173995;81;27731;-61
2021/05/01 03:05:58;;;;;;;42.20;24.80;;;;;;;9.07;63.04;100023.27;2144789;81;28831;-61
2021/05/01 03:09:01;;;;;;;34.30;23.05;;;;;;;9.01;63.09;100020.42;2178912;81;31876;-61
2021/05/01 03:12:06;;;;;;;36.70;21.60;;;;;;;9.00;63.47;100003.11;2177782;81;33951;-62
2021/05/01 03:15:12;;;;;;;35.98;23.47;;;;;;;8.94;63.75;99991.77;2181017;81;30038;-61
2021/05/01 03:18:16;;;;;;;38.85;24.63;;;;;;;8.86;63.61;99994.41;2180910;81;27684;-61
2021/05/01 03:21:19;;;;;;;42.37;26.57;;;;;;;8.79;64.31;100006.73;2181278;81;29297;-61
2021/05/01 03:24:21;;;;;;;35.55;23.57;;;;;;;8.72;63.98;100005.28;2180948;81;31135;-61
2021/05/01 03:27:24;;;;;;;34.78;24.07;;;;;;;8.74;64.22;100015.42;2180151;81;34082;-61
2021/05/01 03:30:27;;;;;;;40.48;24.05;;;;;;;8.79;64.54;100021.42;2179111;81;29175;-61
2021/05/01 03:33:30;;;;;;;38.70;23.47;;;;;;;8.87;64.67;100030.87;2178935;81;27746;-62
2021/05/01 03:36:33;;;;;;;35.58;24.52;;;;;;;8.94;64.69;100044.34;2166537;81;28815;-61
2021/05/01 03:39:35;;;;;;;36.77;24.15;;;;;;;9.02;64.83;100037.30;2171942;81;31655;-62
2021/05/01 03:42:38;;;;;;;38.63;25.97;;;;;;;9.09;64.85;100042.28;2170853;81;32745;-62
2021/05/01 03:45:40;;;;;;;34.85;24.15;;;;;;;9.13;64.72;100042.99;2172493;81;31459;-61
2021/05/01 03:48:42;;;;;;;37.42;23.92;;;;;;;9.19;65.05;100033.81;2173849;81;27711;-61
2021/05/01 03:51:45;;;;;;;40.03;25.97;;;;;;;9.23;64.82;100039.41;2170705;81;29773;-62
2021/05/01 03:54:47;;;;;;;35.65;25.37;;;;;;;9.22;64.69;100041.23;2170702;81;31140;-62
2021/05/01 03:57:49;;;;;;;37.85;24.32;;;;;;;9.20;64.70;100048.91;2169001;81;34078;-63
2021/05/01 04:00:52;;;;;;;40.05;26.50;;;;;;;9.20;65.00;100063.61;2172475;81;31561;-62
2021/05/01 04:03:55;;;;;;;40.28;26.10;;;;;;;9.22;65.29;100065.74;2151308;81;27636;-62
2021/05/01 04:06:57;;;;;;;39.88;25.75;;;;;;;9.22;65.34;100063.07;2149904;81;29392;-62
2021/05/01 04:10:01;;;;;;;39.03;24.55;;;;;;;9.23;65.94;100064.80;2172620;81;31098;-62
2021/05/01 04:13:03;;;;;;;41.23;25.70;;;;;;;9.23;66.17;100063.02;2173934;81;33981;-62
2021/05/01 04:16:06;;;;;;;41.45;26.17;;;;;;;9.21;66.89;100054.66;2167977;81;30761;-61
2021/05/01 04:19:08;;;;;;;41.37;26.12;;;;;;;9.19;68.15;100051.18;2153918;81;27945;-61
2021/05/01 04:22:10;;;;;;;44.33;25.92;;;;;;;9.10;69.42;100053.37;2173113;81;29701;-61
2021/05/01 04:25:14;;;;;;;39.63;26.42;;;;;;;9.07;70.71;100045.98;2169768;81;31562;-61
2021/05/01 04:28:17;;;;;;;40.90;27.35;;;;;;;8.98;70.77;100041.94;2173939;81;32317;-60
2021/05/01 04:31:20;;;;;;;42.03;28.77;;;;;;;8.99;70.51;100048.13;2173749;81;29168;-60
2021/05/01 04:34:22;;;;;;;43.50;29.07;;;;;;;8.98;70.34;100051.29;2146797;81;27727;-61
2021/05/01 04:37:25;;;;;;;60.17;28.60;;;;;;;8.98;70.35;100049.95;2160606;81;30400;-61
2021/05/01 04:40:27;;;;;;;39.85;25.70;;;;;;;9.01;70.73;100052.94;2173490;81;32534;-61
2021/05/01 04:43:30;;;;;;;41.85;26.55;;;;;;;9.04;70.80;100054.14;2136101;83;33190;-60
2021/05/01 04:46:33;;;;;;;39.83;27.20;;;;;;;9.09;70.32;100057.47;2136278;83;29244;-61
2021/05/01 04:49:35;;;;;;;43.02;29.87;;;;;;;9.11;70.39;100065.80;2151149;81;27627;-61
2021/05/01 04:52:37;;;;;;;192.77;121.17;;;;;;;9.14;70.18;100066.11;2164595;81;28895;-60
2021/05/01 04:55:40;;;;;;;49.85;30.50;;;;;;;9.13;70.23;100061.70;2161601;81;31665;-59
2021/05/01 04:58:42;;;;;;;46.05;28.00;;;;;;;9.11;71.59;100061.78;2181030;81;33272;-60
2021/05/01 05:01:44;;;;;;;41.68;27.45;;;;;;;9.09;71.91;100060.14;2181139;81;29174;-60
2021/05/01 05:04:46;;;;;;;38.92;27.05;;;;;;;9.07;71.38;100058.86;2171008;81;27582;-61
2021/05/01 05:07:49;;;;;;;47.27;28.85;;;;;;;9.07;70.89;100052.17;2180850;81;28928;-62
2021/05/01 05:10:51;;;;;;;42.62;29.52;;;;;;;9.06;71.00;100056.27;2180228;80;31148;-60
2021/05/01 05:13:54;;;;;;;45.33;29.90;;;;;;;8.99;70.70;100053.02;2179028;81;33559;-60
2021/05/01 05:16:57;;;;;;;47.53;32.88;;;;;;;8.93;70.48;100044.83;2179328;81;29173;-61
2021/05/01 05:20:01;;;;;;;48.87;31.02;;;;;;;8.94;70.59;100039.00;2178248;81;27695;-61
2021/05/01 05:23:03;;;;;;;46.58;30.27;;;;;;;8.90;70.60;100027.61;2164575;81;29025;-59
2021/05/01 05:26:06;;;;;;;44.33;31.52;;;;;;;8.90;70.73;100030.28;2170953;80;31103;-60
2021/05/01 05:29:10;;;;;;;47.62;30.35;;;;;;;8.87;70.73;100033.09;2135871;83;33072;-60
2021/05/01 05:32:13;;;;;;;48.08;30.65;;;;;;;8.88;71.02;100032.60;2136996;83;29180;-60
2021/05/01 05:35:16;;;;;;;45.28;29.77;;;;;;;8.88;70.75;100030.81;2135307;81;27888;-59
2021/05/01 05:38:18;;;;;;;54.03;33.90;;;;;;;8.86;70.70;100037.14;2140718;80;29257;-60
2021/05/01 05:41:24;;;;;;;50.35;34.03;;;;;;;8.80;70.65;100048.98;2153447;80;31569;-61
2021/05/01 05:44:25;;;;;;;52.90;34.08;;;;;;;8.73;70.67;100059.58;2159153;81;34027;-61
2021/05/01 05:47:28;;;;;;;47.90;32.23;;;;;;;8.69;70.84;100066.84;2131889;81;29174;-60
2021/05/01 05:50:31;;;;;;;41.58;29.85;;;;;;;8.69;70.75;100065.50;2151419;80;28244;-60
2021/05/01 05:53:34;;;;;;;48.78;29.90;;;;;;;8.69;70.87;100053.97;2162714;81;28824;-61
2021/05/01 05:56:36;;;;;;;48.00;31.37;;;;;;;8.68;70.80;100046.89;2159168;81;31142;-61
2021/05/01 05:59:38;;;;;;;43.15;29.80;;;;;;;8.74;71.06;100050.63;2151967;81;33092;-61
2021/05/01 06:02:43;;;;;;;47.83;31.00;;;;;;;8.73;71.41;100053.75;2159202;81;29468;-62
2021/05/01 06:05:52;;;;;;;48.42;33.67;;;;;;;8.72;70.98;100048.01;2174247;81;27603;-61
2021/05/01 06:08:55;;;;;;;53.28;35.23;;;;;;;8.73;71.16;100045.73;2155797;81;28901;-61
2021/05/01 06:12:00;;;;;;;50.05;35.17;;;;;;;8.72;71.00;100050.68;2129453;83;32054;-61
2021/05/01 06:15:10;;;;;;;48.63;31.40;;;;;;;8.74;71.15;100064.84;2134296;81;33105;-61
2021/05/01 06:18:15;;;;;;;43.98;30.32;;;;;;;8.78;70.98;100068.22;2137121;81;29270;-61
2021/05/01 06:21:17;;;;;;;;;;;;;;;8.80;70.76;100066.35;2132446;81;27690;-66
2021/05/01 06:24:19;;;;;;;46.80;31.17;;;;;;;8.84;71.10;100062.61;2129751;81;28767;-60
2021/05/01 06:27:22;;;;;;;49.20;32.53;;;;;;;8.93;71.25;100058.19;2151852;81;31142;-60
2021/05/01 06:30:25;;;;;;;42.38;28.90;;;;;;;9.07;71.26;100056.67;2182146;80;33126;-60
2021/05/01 06:33:28;;;;;;;46.63;31.10;;;;;;;9.21;70.85;100062.22;2171440;81;29242;-59
2021/05/01 06:36:33;;;;;;;46.15;31.25;;;;;;;9.27;70.66;100067.25;2143872;81;27770;-59
2021/05/01 06:39:36;;;;;;;43.85;31.40;;;;;;;9.27;70.32;100071.26;2150246;81;28835;-58
2021/05/01 06:43:01;;;;;;;40.65;29.02;;;;;;;9.34;70.69;100069.64;2151565;81;31110;-62
2021/05/01 06:46:04;;;;;;;43.78;30.40;;;;;;;9.42;70.22;100075.50;2175873;81;34515;-61
2021/05/01 06:49:12;;;;;;;45.55;32.17;;;;;;;9.42;70.37;100073.67;2144510;81;29382;-59
2021/05/01 06:52:16;;;;;;;53.45;34.33;;;;;;;9.49;70.43;100080.92;2179304;81;28181;-59
2021/05/01 06:55:21;;;;;;;48.17;31.87;;;;;;;9.54;70.05;100082.03;2169466;81;28817;-76
2021/05/01 06:58:24;;;;;;;46.35;32.00;;;;;;;9.55;70.05;100079.75;2153286;81;31134;-60
2021/05/01 07:01:26;;;;;;;43.60;29.77;;;;;;;9.58;69.88;100072.92;2163242;81;34401;-60
2021/05/01 07:04:28;;;;;;;41.60;28.57;;;;;;;9.58;69.69;100075.59;2173029;80;30561;-62
2021/05/01 07:07:31;;;;;;;40.80;28.38;;;;;;;9.64;69.67;100079.77;2169497;80;27658;-61
2021/05/01 07:10:34;;;;;;;39.60;28.00;;;;;;;9.72;69.75;100077.59;2166531;81;29730;-60
2021/05/01 07:13:37;;;;;;;37.83;26.93;;;;;;;9.86;69.85;100075.55;2180595;81;32452;-61
2021/05/01 07:16:41;;;;;;;38.02;27.60;;;;;;;9.99;69.61;100075.80;2155592;81;33093;-60
2021/05/01 07:19:45;;;;;;;29.40;20.97;;;;;;;10.09;69.56;100081.09;2181175;81;30026;-60
2021/05/01 07:22:50;;;;;;;36.30;26.45;;;;;;;10.25;69.45;100078.97;2163538;81;28166;-60
2021/05/01 07:25:52;;;;;;;40.08;28.87;;;;;;;10.31;68.79;100076.83;2149502;81;28835;-62
2021/05/01 07:28:55;;;;;;;34.18;25.23;;;;;;;10.41;68.85;100067.00;2167285;81;31683;-61
2021/05/01 07:31:58;;;;;;;38.58;28.17;;;;;;;10.52;68.65;100066.43;2173398;81;33823;-65
2021/05/01 07:35:06;;;;;;;33.95;26.02;;;;;;;10.53;68.43;100073.03;2156065;81;32166;-60
2021/05/01 07:38:12;;;;;;;39.35;27.70;;;;;;;10.68;68.46;100073.16;2140310;80;27695;-60
2021/05/01 07:41:16;;;;;;;37.60;25.70;;;;;;;10.82;68.54;100077.78;2157067;81;29948;-60
2021/05/01 07:44:18;;;;;;;36.00;25.20;;;;;;;11.01;68.35;100076.29;2171488;81;33889;-60
2021/05/01 07:47:23;;;;;;;32.78;25.32;;;;;;;11.14;67.61;100085.86;2160613;81;33588;-61
2021/05/01 07:50:26;;;;;;;37.85;25.57;;;;;;;11.21;68.01;100087.27;2129035;83;36909;-61
2021/05/01 07:53:29;;;;;;;34.43;24.72;;;;;;;11.29;67.35;100089.03;2142715;81;27755;-61
2021/05/01 07:56:32;;;;;;;36.10;25.80;;;;;;;11.39;67.10;100084.89;2131770;81;31169;-62
2021/05/01 07:59:35;;;;;;;34.45;25.40;;;;;;;11.70;67.90;100071.52;2150299;81;31208;-62
2021/05/01 08:02:37;;;;;;;31.45;22.95;;;;;;;12.00;67.36;100070.23;2138686;81;33544;-62
2021/05/01 08:05:39;;;;;;;32.35;22.87;;;;;;;12.20;66.07;100076.70;2108386;81;29125;-65
2021/05/01 08:08:41;;;;;;;28.83;20.90;;;;;;;12.38;66.17;100069.38;2142582;81;27653;-61
2021/05/01 08:11:44;;;;;;;24.27;18.67;;;;;;;12.59;65.20;100062.66;2145032;81;31164;-62
2021/05/01 08:14:46;;;;;;;26.15;20.02;;;;;;;12.64;64.04;100062.39;2129648;81;31151;-62
2021/05/01 08:17:49;;;;;;;29.18;22.45;;;;;;;12.65;64.29;100072.19;2161018;80;33124;-61
2021/05/01 08:20:51;;;;;;;31.37;22.93;;;;;;;12.72;64.11;100074.86;2165456;80;29171;-62
2021/05/01 08:23:53;;;;;;;27.10;21.27;;;;;;;12.90;64.60;100070.63;2194272;80;27752;-61
2021/05/01 08:26:56;;;;;;;28.20;21.87;;;;;;;13.12;63.91;100074.16;2179866;80;28890;-62
2021/05/01 08:29:58;;;;;;;24.50;18.55;;;;;;;13.32;63.82;100074.21;2174000;81;33469;-63
2021/05/01 08:33:01;;;;;;;23.25;18.57;;;;;;;13.44;61.99;100079.81;2182477;81;33698;-64
2021/05/01 08:36:05;;;;;;;25.65;20.30;;;;;;;13.50;62.53;100076.70;2193286;80;29237;-61
2021/05/01 08:39:07;;;;;;;22.32;18.10;;;;;;;13.63;62.60;100068.69;2177426;81;28110;-63
2021/05/01 08:42:09;;;;;;;26.15;20.60;;;;;;;13.73;61.23;100075.67;2173353;81;28888;-62
2021/05/01 08:45:15;;;;;;;22.45;18.20;;;;;;;13.89;61.81;100076.88;2173589;81;31126;-66
2021/05/01 08:48:17;;;;;;;22.13;17.07;;;;;;;14.08;61.02;100073.78;2174008;81;35145;-65
2021/05/01 08:51:19;;;;;;;19.82;15.75;;;;;;;14.17;60.47;100079.88;2172063;81;29169;-63
2021/05/01 08:54:22;;;;;;;23.02;17.32;;;;;;;14.28;60.12;100088.11;2172192;81;27729;-61
2021/05/01 08:57:30;;;;;;;18.32;16.25;;;;;;;14.34;60.11;100083.24;2172229;81;29115;-64
2021/05/01 09:00:34;;;;;;;22.73;17.65;;;;;;;14.43;60.23;100082.13;2135898;83;32027;-64
2021/05/01 09:03:37;;;;;;;17.40;14.35;;;;;;;14.61;60.35;100083.66;2136558;83;33323;-62
2021/05/01 09:06:40;;;;;;;18.07;14.68;;;;;;;14.57;58.37;100078.48;2153031;81;29153;-65
2021/05/01 09:09:42;;;;;;;19.60;14.85;;;;;;;14.52;58.57;100077.08;2142615;81;27792;-66
2021/05/01 09:12:47;;;;;;;22.67;17.57;;;;;;;14.55;58.20;100072.83;2172349;81;29374;-62
2021/05/01 09:16:07;;;;;;;18.17;15.20;;;;;;;14.62;58.90;100080.00;2174071;81;31207;-62
2021/05/01 09:19:10;;;;;;;16.25;14.00;;;;;;;14.77;58.49;100076.72;2173872;81;33957;-63
2021/05/01 09:22:14;;;;;;;15.90;12.85;;;;;;;14.94;58.58;100060.70;2173900;81;30025;-60
2021/05/01 09:25:16;;;;;;;17.50;14.55;;;;;;;15.10;57.26;100059.08;2174045;81;27713;-62
2021/05/01 09:28:19;;;;;;;16.67;13.53;;;;;;;15.04;57.57;100059.05;2173158;80;29688;-62
2021/05/01 09:31:21;;;;;;;16.93;14.58;;;;;;;15.03;56.71;100060.02;2171147;81;32067;-63
2021/05/01 09:34:43;;;;;;;18.65;15.63;;;;;;;15.00;56.84;100049.44;2171464;81;33117;-62
2021/05/01 09:37:46;;;;;;;19.42;15.75;;;;;;;15.00;56.57;100048.97;2148746;81;29947;-61
2021/05/01 09:40:50;;;;;;;21.37;15.08;;;;;;;14.87;56.11;100046.79;2152665;82;27658;-63
2021/05/01 09:44:04;;;;;;;17.50;14.78;;;;;;;14.87;55.90;100027.41;2152888;82;28899;-68
2021/05/01 09:47:16;;;;;;;14.90;13.08;;;;;;;14.95;55.88;100016.06;2153335;82;31150;-66
2021/05/01 09:50:22;;;;;;;33.80;24.77;;;;;;;15.01;55.73;100024.19;2154729;82;33107;-66
2021/05/01 09:53:24;;;;;;;18.35;14.68;;;;;;;15.04;55.37;100036.99;2145732;82;29169;-68
2021/05/01 09:56:28;;;;;;;18.40;14.65;;;;;;;14.88;55.19;100039.08;2202988;80;27600;-69
2021/05/01 09:59:40;;;;;;;18.65;15.32;;;;;;;14.82;54.84;100034.95;2209379;80;28831;-68
2021/05/01 10:02:43;;;;;;;19.07;16.45;;;;;;;14.84;54.92;100038.41;2177292;80;31218;-67
2021/05/01 10:05:46;;;;;;;19.00;15.53;;;;;;;14.84;55.26;100030.32;2128636;83;34457;-69
2021/05/01 10:08:54;;;;;;;19.73;15.70;;;;;;;14.84;54.89;100022.73;2153590;82;29168;-67
2021/05/01 10:12:15;;;;;;;16.37;14.30;;;;;;;14.90;54.92;100020.92;2155005;82;27671;-68
2021/05/01 10:15:24;;;;;;;21.85;15.88;;;;;;;15.02;54.35;100028.14;2154860;82;28638;-65
2021/05/01 10:18:26;;;;;;;22.80;17.60;;;;;;;15.10;54.78;100029.41;2154324;81;31310;-68
2021/05/01 10:21:28;;;;;;;23.02;17.23;;;;;;;15.16;54.33;100024.92;2123187;82;34060;-69
2021/05/01 10:24:41;;;;;;;20.25;16.15;;;;;;;15.27;54.21;100016.03;2114264;84;29944;-69
2021/05/01 10:27:56;;;;;;;17.70;14.78;;;;;;;15.38;54.58;100014.73;2141580;81;28099;-69
2021/05/01 10:31:01;;;;;;;18.85;15.48;;;;;;;15.58;53.98;100028.09;2152673;82;29156;-70
2021/05/01 10:34:03;;;;;;;20.32;17.05;;;;;;;15.70;54.37;100020.06;2154244;82;31967;-66
2021/05/01 10:37:06;;;;;;;19.70;16.85;;;;;;;15.82;53.70;100015.53;2145027;82;33142;-68
2021/05/01 10:40:10;;;;;;;19.27;15.32;;;;;;;15.84;53.37;100009.53;2126285;83;29216;-69
2021/05/01 10:43:21;;;;;;;20.23;16.93;;;;;;;15.89;53.02;100000.63;2165257;82;27604;-66
2021/05/01 10:46:28;;;;;;;19.65;16.75;;;;;;;15.94;52.95;99995.74;2179909;80;30370;-68
2021/05/01 10:49:35;;;;;;;21.60;18.50;;;;;;;16.05;52.91;99990.86;2164936;82;31152;-66
2021/05/01 10:52:38;;;;;;;19.02;15.05;;;;;;;16.17;53.33;99998.48;2197627;80;33947;-66
2021/05/01 10:55:51;;;;;;;23.65;17.00;;;;;;;16.09;52.10;99985.09;2200582;80;29275;-67
2021/05/01 10:58:54;;;;;;;20.62;17.05;;;;;;;16.06;52.06;99981.27;2178704;80;28287;-68
2021/05/01 11:02:00;;;;;;;19.77;17.73;;;;;;;16.20;52.44;99999.59;2155996;82;28103;-67
2021/05/01 11:05:04;;;;;;;21.48;18.12;;;;;;;16.33;51.68;100010.31;2138607;82;31153;-66
2021/05/01 11:08:28;;;;;;;;;;;;;;;16.37;52.16;100015.35;2141808;82;33186;-65
2021/05/01 11:11:37;;;;;;;16.60;14.80;;;;;;;16.42;51.80;100013.63;2138545;83;29127;-65
2021/05/01 11:14:47;;;;;;;22.65;16.97;;;;;;;16.50;51.39;100015.25;2139265;83;27711;-64
2021/05/01 11:18:07;;;;;;;20.52;16.90;;;;;;;16.36;51.21;100019.03;2164866;82;29711;-64
2021/05/01 11:21:12;;;;;;;20.02;16.35;;;;;;;16.45;51.67;100012.55;2139319;83;31222;-66
2021/05/01 11:24:15;;;;;;;24.05;17.20;;;;;;;16.50;51.21;100004.44;2165081;82;33190;-69
2021/05/01 11:27:20;;;;;;;19.87;16.95;;;;;;;16.64;51.48;100010.58;2139015;83;29157;-69
2021/05/01 11:30:25;;;;;;;19.80;17.57;;;;;;;16.79;50.76;100020.17;2144933;83;27771;-67
2021/05/01 11:33:27;;;;;;;20.50;18.23;;;;;;;16.87;50.67;100022.26;2199851;80;28874;-68
2021/05/01 11:36:31;;;;;;;21.52;18.55;;;;;;;16.98;50.41;100018.72;2202877;80;31146;-69
2021/05/01 11:39:41;;;;;;;19.57;17.33;;;;;;;16.89;50.01;100023.47;2206534;80;33121;-69
2021/05/01 11:42:45;;;;;;;21.68;18.62;;;;;;;16.73;49.78;100017.10;2173520;81;29148;-71
2021/05/01 11:46:09;;;;;;;23.30;19.45;;;;;;;16.51;50.07;100022.86;2166352;80;27796;-68
2021/05/01 11:49:07;;;;;;;22.67;18.52;;;;;;;16.56;50.60;100026.06;2164574;81;29795;-69
2021/05/01 11:52:16;;;;;;;22.13;19.00;;;;;;;16.59;50.46;100039.36;2169859;81;32068;-66
2021/05/01 11:55:23;;;;;;;23.52;19.60;;;;;;;16.59;50.61;100036.65;2173306;81;33131;-65
2021/05/01 11:58:30;;;;;;;25.62;20.50;;;;;;;16.60;49.90;100043.78;2171322;81;29167;-67
2021/05/01 12:01:34;;;;;;;23.67;19.55;;;;;;;16.61;49.88;100007.64;2166856;81;27673;-68
2021/05/01 12:05:05;;;;;;;23.67;19.93;;;;;;;16.61;49.88;100007.64;2169758;81;28899;-67
2021/05/01 12:08:17;;;;;;;23.73;20.57;;;;;;;16.64;50.07;100030.87;2163940;81;31836;-68
2021/05/01 12:11:23;;;;;;;25.32;20.82;;;;;;;16.71;50.21;100024.84;2173944;81;33101;-66
2021/05/01 12:14:28;;;;;;;23.60;18.23;;;;;;;16.82;50.14;100021.28;2174018;81;29233;-63
2021/05/01 12:17:31;;;;;;;21.50;19.00;;;;;;;16.86;49.95;100013.30;2174209;81;27772;-65
2021/05/01 12:20:38;;;;;;;22.27;18.82;;;;;;;16.86;49.95;100013.30;2173838;81;28756;-70
2021/05/01 12:23:47;;;;;;;21.95;19.65;;;;;;;16.87;49.47;100001.96;2143439;81;31152;-70
2021/05/01 12:26:49;;;;;;;21.80;18.90;;;;;;;16.96;50.02;99985.50;2171957;81;33094;-67
2021/05/01 12:29:52;;;;;;;23.18;19.62;;;;;;;16.98;49.60;99974.91;2162819;80;29251;-69
2021/05/01 12:32:54;;;;;;;24.90;20.12;;;;;;;17.05;49.11;99977.97;2130540;83;27691;-66
2021/05/01 12:36:03;;;;;;;21.97;19.65;;;;;;;17.01;49.34;99970.61;2171138;81;28842;-66
2021/05/01 12:39:06;;;;;;;22.25;19.85;;;;;;;16.94;49.28;99969.38;2173768;80;30930;-67
2021/05/01 12:42:22;;;;;;;18.77;16.48;;;;;;;16.95;49.15;99983.31;2174157;81;33938;-72
2021/05/01 12:45:33;;;;;;;23.25;18.07;;;;;;;16.91;49.20;99980.45;2040075;86;29161;-65
2021/05/01 12:48:54;;;;;;;20.70;18.48;;;;;;;16.86;49.46;99975.89;2037004;87;27742;-64
2021/05/01 12:52:06;;;;;;;18.57;16.52;;;;;;;16.76;49.03;99962.25;2035530;87;28810;-68
2021/05/01 12:55:11;;;;;;;21.17;17.73;;;;;;;16.71;49.16;99957.22;2054466;86;31217;-64
2021/05/01 12:58:19;;;;;;;21.20;18.07;;;;;;;16.47;49.10;99957.35;2054096;86;34486;-65
2021/05/01 13:01:28;;;;;;;21.17;18.50;;;;;;;16.48;49.58;99964.96;2013055;85;29182;-65
2021/05/01 13:04:36;;;;;;;32.78;25.48;;;;;;;16.52;49.77;99960.56;2015856;87;28003;-65
2021/05/01 13:07:43;;;;;;;26.70;22.13;;;;;;;16.47;49.90;99947.89;2033007;86;31476;-72
2021/05/01 13:10:47;;;;;;;20.12;17.15;;;;;;;16.47;49.59;99949.72;2054459;86;31997;-71
2021/05/01 13:13:49;;;;;;;20.60;16.93;;;;;;;16.37;49.43;99954.52;2052660;86;33328;-69
2021/05/01 13:17:04;;;;;;;20.62;17.55;;;;;;;16.28;49.64;99951.69;2023918;87;29610;-68
2021/05/01 13:20:12;;;;;;;20.25;17.52;;;;;;;16.28;49.64;99940.87;2023353;87;28020;-68
2021/05/01 13:23:44;;;;;;;18.48;16.37;;;;;;;16.37;49.65;99917.19;2341977;76;32339;-70
2021/05/01 13:26:55;;;;;;;19.37;16.57;;;;;;;16.36;49.70;99924.92;2287412;77;27699;-67
2021/05/01 13:30:02;;;;;;;21.93;17.67;;;;;;;16.45;49.72;99930.92;2264179;78;29664;-68
2021/05/01 13:33:06;;;;;;;20.95;17.15;;;;;;;16.51;49.72;99919.63;2264635;78;31416;-70
2021/05/01 13:36:09;;;;;;;25.10;21.33;;;;;;;16.47;49.45;99911.86;2269585;76;33104;-66
2021/05/01 13:39:20;;;;;;;24.05;20.37;;;;;;;16.28;49.89;99903.91;2306358;77;29916;-67
2021/05/01 13:42:24;;;;;;;25.60;21.20;;;;;;;16.00;50.37;99884.47;2306741;76;27636;-66
2021/05/01 13:45:26;;;;;;;29.10;22.30;;;;;;;16.06;50.47;99913.72;2306089;77;28842;-70
2021/05/01 13:48:28;;;;;;;27.02;20.92;;;;;;;16.04;50.63;99904.88;2264477;78;31191;-68
2021/05/01 13:51:33;;;;;;;31.20;22.90;;;;;;;16.04;50.84;99914.33;2286373;77;33169;-68
2021/05/01 13:54:37;;;;;;;23.22;20.70;;;;;;;16.02;50.77;99914.94;2289485;77;29747;-71
2021/05/01 13:57:39;;;;;;;22.90;20.05;;;;;;;16.02;50.58;99909.53;2303968;77;27641;-66
2021/05/01 14:00:48;;;;;;;25.45;21.70;;;;;;;16.00;50.90;99916.89;2265721;78;28765;-71
2021/05/01 14:03:50;;;;;;;27.55;20.70;;;;;;;15.99;50.72;99919.73;2283439;76;31137;-68
2021/05/01 14:06:51;;;;;;;27.50;20.32;;;;;;;15.88;50.90;99912.46;2291604;76;33126;-70